Time;durP1;ratioP1;P1;durP2;ratioP2;P2;SDS_P1;SDS_P2;PMS_P1;PMS_P2;Temp;Humidity;BMP_temperature;BMP_pressure;BME280_temperature;BME280_humidity;BME280_pressure;Samples;Min_cycle;Max_cycle;Signal;HPM_P1;HPM_P2
2020/12/14 06:02:28;;;;;;;;;;;;;;;;;;5143933;27;20884;-58
2020/12/14 06:04:58;;;;;;;45.65;6.15;;;;;;;;;;5145475;27;20322;-59
2020/12/14 06:07:26;;;;;;;42.10;5.82;;;;;;;;;;5134088;27;20118;-57
2020/12/14 06:10:01;;;;;;;53.13;7.22;;;;;;;;;;5133738;27;20031;-58
2020/12/14 06:12:30;;;;;;;50.70;7.13;;;;;;;;;;5133783;27;20032;-60
2020/12/14 06:14:59;;;;;;;57.05;5.90;;;;;;;;;;5133220;27;20106;-59
2020/12/14 06:17:29;;;;;;;49.75;5.78;;;;;;;;;;5141870;27;20089;-59
2020/12/14 06:20:00;;;;;;;43.35;6.40;;;;;;;;;;5144876;27;20034;-59
2020/12/14 06:22:26;;;;;;;51.10;5.70;;;;;;;;;;5143011;27;20045;-58
2020/12/14 06:24:58;;;;;;;45.42;5.55;;;;;;;;;;5138018;27;20051;-59
2020/12/14 06:27:25;;;;;;;44.63;6.07;;;;;;;;;;5133714;27;20023;-58
2020/12/14 06:29:51;;;;;;;49.42;6.13;;;;;;;;;;5132020;27;20069;-58
2020/12/14 06:32:36;;;;;;;36.42;5.90;;;;;;;;;;5111891;27;20023;-58
2020/12/14 06:35:03;;;;;;;50.83;5.65;;;;;;;;;;5144812;27;20515;-58
2020/12/14 06:37:48;;;;;;;54.90;7.05;;;;;;;;;;5133738;27;20510;-58
2020/12/14 06:40:15;;;;;;;53.00;5.88;;;;;;;;;;5130891;27;20114;-58
2020/12/14 06:42:41;;;;;;;45.85;6.18;;;;;;;;;;5133220;27;20031;-58
2020/12/14 06:45:08;;;;;;;55.10;7.18;;;;;;;;;;5133285;27;20037;-59
2020/12/14 06:47:47;;;;;;;48.53;6.47;;;;;;;;;;5136288;27;20525;-58
2020/12/14 06:50:37;;;;;;;44.13;5.97;;;;;;;;;;5130627;27;20483;-58
2020/12/14 06:53:03;;;;;;;40.28;6.18;;;;;;;;;;5138886;27;20015;-62
2020/12/14 06:55:42;;;;;;;49.25;6.13;;;;;;;;;;5132895;27;20032;-61
2020/12/14 06:58:09;;;;;;;38.95;5.95;;;;;;;;;;5132631;27;20126;-59
2020/12/14 07:00:35;;;;;;;45.55;6.45;;;;;;;;;;5132155;27;20126;-58
2020/12/14 07:03:02;;;;;;;47.72;6.05;;;;;;;;;;5121250;27;20031;-60
2020/12/14 07:05:31;;;;;;;50.08;7.10;;;;;;;;;;5131168;27;20468;-58
2020/12/14 07:07:58;;;;;;;40.55;6.63;;;;;;;;;;5130785;27;20035;-59
2020/12/14 07:10:25;;;;;;;36.22;4.88;;;;;;;;;;5131192;27;20108;-58
2020/12/14 07:12:51;;;;;;;46.13;5.88;;;;;;;;;;5130753;27;20121;-58
2020/12/14 07:15:24;;;;;;;38.58;5.65;;;;;;;;;;5128549;27;20399;-61
2020/12/14 07:18:02;;;;;;;37.97;5.22;;;;;;;;;;5115483;27;20443;-60
2020/12/14 07:20:28;;;;;;;33.92;5.50;;;;;;;;;;5124023;27;20117;-55
2020/12/14 07:23:00;;;;;;;46.42;6.18;;;;;;;;;;5126708;27;20176;-62
2020/12/14 07:25:26;;;;;;;41.63;6.25;;;;;;;;;;5130059;27;20106;-57
2020/12/14 07:27:52;;;;;;;33.78;5.22;;;;;;;;;;5115199;27;20050;-53
2020/12/14 07:30:19;;;;;;;42.22;6.32;;;;;;;;;;5129639;27;20372;-58
2020/12/14 07:32:47;;;;;;;30.90;5.25;;;;;;;;;;5119758;27;20059;-56
2020/12/14 07:35:13;;;;;;;55.17;6.85;;;;;;;;;;5119407;27;20016;-55
2020/12/14 07:37:42;;;;;;;63.25;8.05;;;;;;;;;;5116678;27;20033;-55
2020/12/14 07:40:09;;;;;;;41.45;5.57;;;;;;;;;;5114957;27;20023;-60
2020/12/14 07:42:36;;;;;;;48.00;6.30;;;;;;;;;;5123801;27;20019;-58
2020/12/14 07:45:08;;;;;;;38.33;6.60;;;;;;;;;;5128200;27;20110;-55
2020/12/14 07:47:34;;;;;;;51.75;7.32;;;;;;;;;;5121092;27;20031;-55
2020/12/14 07:50:07;;;;;;;45.70;6.22;;;;;;;;;;5118757;27;20551;-57
2020/12/14 07:52:34;;;;;;;50.15;5.90;;;;;;;;;;5129718;27;20019;-53
2020/12/14 07:55:07;;;;;;;37.03;5.35;;;;;;;;;;5114018;27;20471;-54
2020/12/14 07:57:36;;;;;;;49.97;5.82;;;;;;;;;;5128795;27;20460;-51
2020/12/14 08:00:04;;;;;;;48.15;6.63;;;;;;;;;;5127388;27;20038;-54
2020/12/14 08:02:40;;;;;;;44.80;4.93;;;;;;;;;;5119173;27;20480;-57
2020/12/14 08:05:08;;;;;;;42.17;5.05;;;;;;;;;;5119365;27;20607;-55
2020/12/14 08:07:46;;;;;;;29.23;5.00;;;;;;;;;;5129303;27;20017;-56
2020/12/14 08:10:13;;;;;;;35.20;4.75;;;;;;;;;;5114592;27;20035;-56
2020/12/14 08:12:41;;;;;;;34.58;6.07;;;;;;;;;;5112565;27;20099;-56
2020/12/14 08:15:08;;;;;;;52.00;5.93;;;;;;;;;;5127281;27;20027;-57
2020/12/14 08:17:35;;;;;;;49.00;6.30;;;;;;;;;;5120276;27;20045;-55
2020/12/14 08:20:02;;;;;;;48.40;6.18;;;;;;;;;;5117122;27;20072;-57
2020/12/14 08:22:32;;;;;;;43.53;4.95;;;;;;;;;;5116949;27;20032;-56
2020/12/14 08:24:58;;;;;;;45.35;5.00;;;;;;;;;;5098772;27;20024;-56
2020/12/14 08:27:34;;;;;;;44.78;6.25;;;;;;;;;;5128579;27;20031;-57
2020/12/14 08:30:06;;;;;;;46.80;7.97;;;;;;;;;;5117643;27;20059;-54
2020/12/14 08:32:33;;;;;;;42.03;5.55;;;;;;;;;;5122164;27;20031;-55
2020/12/14 08:34:59;;;;;;;52.90;6.50;;;;;;;;;;5125733;27;20368;-56
2020/12/14 08:37:25;;;;;;;46.08;5.25;;;;;;;;;;5128748;27;20031;-54
2020/12/14 08:39:58;;;;;;;44.65;6.85;;;;;;;;;;5113689;27;20028;-56
2020/12/14 08:42:29;;;;;;;45.85;5.85;;;;;;;;;;5118850;27;20412;-54
2020/12/14 08:45:06;;;;;;;51.10;6.40;;;;;;;;;;5124569;27;20045;-56
2020/12/14 08:47:35;;;;;;;44.30;5.97;;;;;;;;;;5119933;27;20031;-56
2020/12/14 08:50:01;;;;;;;49.50;5.82;;;;;;;;;;5116212;27;20031;-57
2020/12/14 08:52:27;;;;;;;40.17;6.00;;;;;;;;;;5124585;27;20038;-53
2020/12/14 08:54:55;;;;;;;50.78;7.47;;;;;;;;;;5113463;27;20060;-57
2020/12/14 08:57:28;;;;;;;38.83;6.60;;;;;;;;;;5109206;27;20444;-55
2020/12/14 09:00:11;;;;;;;40.75;5.22;;;;;;;;;;5116649;27;20050;-52
2020/12/14 09:02:37;;;;;;;36.78;4.63;;;;;;;;;;5115579;27;20578;-59
2020/12/14 09:05:15;;;;;;;38.08;6.05;;;;;;;;;;5117823;27;20050;-56
2020/12/14 09:07:42;;;;;;;32.55;6.45;;;;;;;;;;5124550;27;20034;-56
2020/12/14 09:10:18;;;;;;;40.83;5.45;;;;;;;;;;5113464;27;20032;-54
2020/12/14 09:12:44;;;;;;;30.90;5.32;;;;;;;;;;5128014;27;20023;-56
2020/12/14 09:15:10;;;;;;;47.05;6.55;;;;;;;;;;5115835;27;20327;-58
2020/12/14 09:17:37;;;;;;;33.97;6.32;;;;;;;;;;5122185;27;20035;-55
2020/12/14 09:20:04;;;;;;;37.80;5.45;;;;;;;;;;5119293;27;20507;-54
2020/12/14 09:22:30;;;;;;;40.53;5.75;;;;;;;;;;5128264;27;20019;-56
2020/12/14 09:24:56;;;;;;;31.73;4.80;;;;;;;;;;5112617;27;20023;-52
2020/12/14 09:27:22;;;;;;;36.35;4.80;;;;;;;;;;5126731;27;20031;-58
2020/12/14 09:29:48;;;;;;;40.47;6.20;;;;;;;;;;5116573;27;20031;-56
2020/12/14 09:32:15;;;;;;;43.38;5.97;;;;;;;;;;5118881;27;20022;-56
2020/12/14 09:34:42;;;;;;;43.33;6.10;;;;;;;;;;5126411;27;20027;-58
2020/12/14 09:37:08;;;;;;;32.28;5.00;;;;;;;;;;5113020;27;20023;-55
2020/12/14 09:39:35;;;;;;;37.33;6.50;;;;;;;;;;5127487;27;20023;-56
2020/12/14 09:42:03;;;;;;;31.85;6.20;;;;;;;;;;5125281;27;20543;-52
2020/12/14 09:44:30;;;;;;;41.50;5.30;;;;;;;;;;5119630;27;20035;-53
2020/12/14 09:46:58;;;;;;;45.60;5.53;;;;;;;;;;5116248;27;20113;-55
2020/12/14 09:49:24;;;;;;;35.53;5.78;;;;;;;;;;5127510;28;20019;-52
2020/12/14 09:51:53;;;;;;;33.97;5.10;;;;;;;;;;5112914;28;21023;-56
2020/12/14 09:54:19;;;;;;;45.45;7.03;;;;;;;;;;5115148;28;20024;-54
2020/12/14 09:56:45;;;;;;;35.92;4.45;;;;;;;;;;5122862;28;20430;-53
2020/12/14 09:59:11;;;;;;;47.08;5.65;;;;;;;;;;5121331;28;20396;-55
2020/12/14 10:01:38;;;;;;;37.30;5.90;;;;;;;;;;5113016;28;20054;-57
2020/12/14 10:04:04;;;;;;;43.47;5.30;;;;;;;;;;5126837;28;20025;-55
2020/12/14 10:06:30;;;;;;;32.30;5.03;;;;;;;;;;5115082;28;20529;-58
2020/12/14 10:08:56;;;;;;;32.63;5.80;;;;;;;;;;5115844;28;20802;-50
2020/12/14 10:11:23;;;;;;;40.08;6.55;;;;;;;;;;5119559;28;20138;-54
2020/12/14 10:13:49;;;;;;;41.33;5.65;;;;;;;;;;5114756;28;20027;-55
2020/12/14 10:16:15;;;;;;;41.22;6.88;;;;;;;;;;5114246;28;20079;-55
2020/12/14 10:18:41;;;;;;;37.22;5.82;;;;;;;;;;5128988;28;20024;-53
2020/12/14 10:21:07;;;;;;;36.00;5.78;;;;;;;;;;5115398;28;20508;-56
2020/12/14 10:23:34;;;;;;;28.55;4.43;;;;;;;;;;5128684;27;20053;-54
2020/12/14 10:26:00;;;;;;;28.08;3.25;;;;;;;;;;5128978;27;20042;-55
2020/12/14 10:28:26;;;;;;;14.85;2.45;;;;;;;;;;5126193;28;20011;-57
2020/12/14 10:30:52;;;;;;;17.35;2.20;;;;;;;;;;5133140;27;20131;-55
2020/12/14 10:33:18;;;;;;;16.80;1.80;;;;;;;;;;5130264;28;20102;-56
2020/12/14 10:35:45;;;;;;;11.75;1.60;;;;;;;;;;5127506;28;20019;-55
2020/12/14 10:38:12;;;;;;;12.75;1.65;;;;;;;;;;5113815;27;20026;-55
2020/12/14 10:40:38;;;;;;;9.43;1.25;;;;;;;;;;5131150;27;20046;-54
2020/12/14 10:43:04;;;;;;;14.60;1.65;;;;;;;;;;5133194;27;20023;-56
2020/12/14 10:45:31;;;;;;;19.00;1.90;;;;;;;;;;5134400;27;20384;-57
2020/12/14 10:47:57;;;;;;;12.93;1.98;;;;;;;;;;5131982;27;20028;-56
2020/12/14 10:50:24;;;;;;;12.13;2.40;;;;;;;;;;5131103;27;20118;-55
2020/12/14 10:52:50;;;;;;;11.70;1.95;;;;;;;;;;5130966;27;20427;-53
2020/12/14 10:55:18;;;;;;;11.45;1.35;;;;;;;;;;5130696;27;20027;-54
2020/12/14 10:57:44;;;;;;;15.02;1.98;;;;;;;;;;5130435;27;20030;-54
2020/12/14 11:00:11;;;;;;;12.18;1.98;;;;;;;;;;5131957;27;20496;-56
2020/12/14 11:02:41;;;;;;;14.57;1.98;;;;;;;;;;5130535;27;20038;-56
2020/12/14 11:05:07;;;;;;;14.38;3.13;;;;;;;;;;5128648;27;20023;-57
2020/12/14 11:07:34;;;;;;;22.55;3.47;;;;;;;;;;5132302;27;20049;-54
2020/12/14 11:10:00;;;;;;;13.80;2.45;;;;;;;;;;5131870;27;20027;-53
2020/12/14 11:12:27;;;;;;;21.27;2.88;;;;;;;;;;5131226;27;20152;-56
2020/12/14 11:14:54;;;;;;;21.15;4.55;;;;;;;;;;5132329;27;20471;-56
2020/12/14 11:17:20;;;;;;;21.92;3.17;;;;;;;;;;5132285;27;20122;-55
2020/12/14 11:19:47;;;;;;;19.73;3.15;;;;;;;;;;5132031;27;20476;-57
2020/12/14 11:22:13;;;;;;;20.60;3.15;;;;;;;;;;5130001;27;20025;-54
2020/12/14 11:24:39;;;;;;;23.35;2.88;;;;;;;;;;5137565;27;20049;-55
2020/12/14 11:27:05;;;;;;;30.70;4.38;;;;;;;;;;5133347;27;20034;-55
2020/12/14 11:29:31;;;;;;;28.05;4.13;;;;;;;;;;5131844;27;20022;-56
2020/12/14 11:31:57;;;;;;;23.80;4.60;;;;;;;;;;5128701;27;20499;-55
2020/12/14 11:34:24;;;;;;;25.92;4.95;;;;;;;;;;5131404;27;20031;-54
2020/12/14 11:36:50;;;;;;;24.55;4.00;;;;;;;;;;5128790;27;20776;-54
2020/12/14 11:39:16;;;;;;;31.40;4.60;;;;;;;;;;5131117;27;20023;-54
2020/12/14 11:41:46;;;;;;;34.30;5.47;;;;;;;;;;5128587;27;20474;-55
2020/12/14 11:44:12;;;;;;;29.20;3.88;;;;;;;;;;5128271;27;20395;-54
2020/12/14 11:46:38;;;;;;;28.80;4.60;;;;;;;;;;5130474;27;20027;-56
2020/12/14 11:49:04;;;;;;;28.05;4.90;;;;;;;;;;5111242;27;20027;-55
2020/12/14 11:51:31;;;;;;;30.65;4.03;;;;;;;;;;5130820;27;20095;-56
2020/12/14 11:53:57;;;;;;;33.85;4.70;;;;;;;;;;5128721;27;20103;-54
2020/12/14 11:56:23;;;;;;;29.85;4.75;;;;;;;;;;5127812;27;20026;-54
2020/12/14 11:58:49;;;;;;;28.83;4.55;;;;;;;;;;5128863;27;20471;-57
2020/12/14 12:01:15;;;;;;;28.95;4.40;;;;;;;;;;5129998;27;20035;-54
2020/12/14 12:03:41;;;;;;;29.52;4.38;;;;;;;;;;5127004;27;20445;-55
2020/12/14 12:06:07;;;;;;;29.60;5.65;;;;;;;;;;5129361;27;20544;-55
2020/12/14 12:08:33;;;;;;;21.65;4.50;;;;;;;;;;5126766;27;20262;-55
2020/12/14 12:11:00;;;;;;;22.75;4.10;;;;;;;;;;5127608;27;20408;-56
2020/12/14 12:13:26;;;;;;;33.10;4.10;;;;;;;;;;5130431;27;20034;-55
2020/12/14 12:15:52;;;;;;;26.58;4.95;;;;;;;;;;5111777;27;20035;-55
2020/12/14 12:18:18;;;;;;;28.98;4.38;;;;;;;;;;5130006;27;20483;-57
2020/12/14 12:20:44;;;;;;;28.17;4.65;;;;;;;;;;5109384;27;20019;-55
2020/12/14 12:23:10;;;;;;;31.13;4.90;;;;;;;;;;5128697;27;20062;-57
2020/12/14 12:25:36;;;;;;;25.80;3.70;;;;;;;;;;5129394;27;20023;-56
2020/12/14 12:28:02;;;;;;;28.38;3.75;;;;;;;;;;5127935;27;20361;-56
2020/12/14 12:30:34;;;;;;;30.05;4.80;;;;;;;;;;5131391;27;20050;-56
2020/12/14 12:33:00;;;;;;;24.67;4.28;;;;;;;;;;5111203;27;20361;-55
2020/12/14 12:35:26;;;;;;;22.30;3.95;;;;;;;;;;5111226;27;20079;-55
2020/12/14 12:37:52;;;;;;;17.67;3.10;;;;;;;;;;5129249;27;20151;-53
2020/12/14 12:40:18;;;;;;;22.05;3.22;;;;;;;;;;5129449;27;20485;-57
2020/12/14 12:42:44;;;;;;;22.15;3.92;;;;;;;;;;5131144;27;20357;-55
2020/12/14 12:45:11;;;;;;;22.13;2.88;;;;;;;;;;5130703;27;20099;-57
2020/12/14 12:47:37;;;;;;;20.27;4.65;;;;;;;;;;5129175;27;20431;-55
2020/12/14 12:50:03;;;;;;;10.43;2.28;;;;;;;;;;5130522;27;20472;-55
2020/12/14 12:52:29;;;;;;;17.70;2.70;;;;;;;;;;5132083;27;20126;-54
2020/12/14 12:54:55;;;;;;;15.80;2.70;;;;;;;;;;5129331;27;20099;-56
2020/12/14 12:57:21;;;;;;;13.52;3.42;;;;;;;;;;5133479;27;20391;-55
2020/12/14 12:59:48;;;;;;;10.20;2.13;;;;;;;;;;5128415;27;20026;-54
2020/12/14 13:02:14;;;;;;;14.55;2.47;;;;;;;;;;5128396;27;20392;-55
2020/12/14 13:04:40;;;;;;;14.20;2.20;;;;;;;;;;5128741;27;20027;-55
2020/12/14 13:07:06;;;;;;;21.10;3.65;;;;;;;;;;5128979;27;20024;-54
2020/12/14 13:09:33;;;;;;;15.85;2.70;;;;;;;;;;5131096;27;20058;-54
2020/12/14 13:11:59;;;;;;;14.68;2.65;;;;;;;;;;5127488;27;20031;-56
2020/12/14 13:14:25;;;;;;;15.52;2.58;;;;;;;;;;5128832;27;20051;-54
2020/12/14 13:16:51;;;;;;;14.95;2.47;;;;;;;;;;5110538;27;20027;-53
2020/12/14 13:19:18;;;;;;;22.90;2.90;;;;;;;;;;5128733;27;20030;-53
2020/12/14 13:21:44;;;;;;;20.65;2.60;;;;;;;;;;5128833;27;20030;-58
2020/12/14 13:24:10;;;;;;;23.58;2.90;;;;;;;;;;5129429;27;20029;-61
2020/12/14 13:26:36;;;;;;;21.35;3.67;;;;;;;;;;5128045;27;20023;-61
2020/12/14 13:29:02;;;;;;;14.05;2.90;;;;;;;;;;5125485;27;20062;-61
2020/12/14 13:31:29;;;;;;;16.33;2.25;;;;;;;;;;5128205;27;20042;-61
2020/12/14 13:33:55;;;;;;;14.43;2.47;;;;;;;;;;5128948;27;20092;-62
2020/12/14 13:36:22;;;;;;;15.30;2.25;;;;;;;;;;5130909;27;20453;-62
2020/12/14 13:38:49;;;;;;;15.10;2.38;;;;;;;;;;5127875;27;20583;-61
2020/12/14 13:41:15;;;;;;;15.88;2.72;;;;;;;;;;5127600;27;20027;-62
2020/12/14 13:43:41;;;;;;;15.43;1.83;;;;;;;;;;5128349;27;20099;-61
2020/12/14 13:46:07;;;;;;;17.42;1.92;;;;;;;;;;5128396;27;20039;-61
2020/12/14 13:48:34;;;;;;;13.75;2.10;;;;;;;;;;5129202;27;20023;-60
2020/12/14 13:51:01;;;;;;;14.70;2.45;;;;;;;;;;5129456;28;20141;-61
2020/12/14 13:53:27;;;;;;;17.10;1.73;;;;;;;;;;5127751;28;20102;-60
2020/12/14 13:55:55;;;;;;;15.73;2.50;;;;;;;;;;5128919;28;20019;-60
2020/12/14 13:58:22;;;;;;;14.77;2.13;;;;;;;;;;5129492;28;20023;-61
2020/12/14 14:00:48;;;;;;;18.48;2.60;;;;;;;;;;5127667;28;20476;-61
2020/12/14 14:03:14;;;;;;;16.08;2.85;;;;;;;;;;5127510;28;20113;-60
2020/12/14 14:05:42;;;;;;;11.60;2.10;;;;;;;;;;5127248;28;20029;-60
2020/12/14 14:08:08;;;;;;;14.30;2.38;;;;;;;;;;5127338;28;20034;-59
2020/12/14 14:10:34;;;;;;;14.27;2.58;;;;;;;;;;5128786;28;20023;-60
2020/12/14 14:13:01;;;;;;;9.88;2.10;;;;;;;;;;5130051;27;20011;-64
2020/12/14 14:15:27;;;;;;;13.43;2.03;;;;;;;;;;5133341;27;20031;-63
2020/12/14 14:17:53;;;;;;;16.20;2.90;;;;;;;;;;5131592;27;20019;-64
2020/12/14 14:20:19;;;;;;;16.70;2.15;;;;;;;;;;5130909;27;20535;-63
2020/12/14 14:22:45;;;;;;;18.52;2.63;;;;;;;;;;5131332;27;20114;-63
2020/12/14 14:25:11;;;;;;;18.73;2.50;;;;;;;;;;5132413;27;20055;-64
2020/12/14 14:27:37;;;;;;;16.30;2.70;;;;;;;;;;5132050;27;20023;-63
2020/12/14 14:30:04;;;;;;;13.30;2.70;;;;;;;;;;5132564;27;20050;-64
2020/12/14 14:32:33;;;;;;;17.13;2.75;;;;;;;;;;5128748;27;20027;-64
2020/12/14 14:34:59;;;;;;;14.07;2.60;;;;;;;;;;5130923;27;20488;-64
2020/12/14 14:37:28;;;;;;;18.02;7.28;;;;;;;;;;5132533;27;20055;-64
2020/12/14 14:39:54;;;;;;;17.35;2.90;;;;;;;;;;5131722;27;20038;-64
2020/12/14 14:42:20;;;;;;;15.55;2.75;;;;;;;;;;5132143;27;20019;-60
2020/12/14 14:44:46;;;;;;;20.88;3.08;;;;;;;;;;5130707;27;20387;-60
2020/12/14 14:47:13;;;;;;;13.20;1.95;;;;;;;;;;5130342;27;20418;-61
2020/12/14 14:49:39;;;;;;;14.68;2.70;;;;;;;;;;5131445;27;20468;-60
2020/12/14 14:52:05;;;;;;;18.98;2.58;;;;;;;;;;5131192;27;20064;-61
2020/12/14 14:54:31;;;;;;;17.40;2.65;;;;;;;;;;5132840;27;20019;-60
2020/12/14 14:56:57;;;;;;;15.63;2.55;;;;;;;;;;5130695;27;20395;-60
2020/12/14 14:59:24;;;;;;;14.82;2.97;;;;;;;;;;5129355;27;20031;-59
2020/12/14 15:01:50;;;;;;;13.20;2.45;;;;;;;;;;5129766;27;20499;-60
2020/12/14 15:04:22;;;;;;;11.65;1.92;;;;;;;;;;5131735;27;20065;-59
2020/12/14 15:06:48;;;;;;;14.25;2.28;;;;;;;;;;5130722;27;20055;-60
2020/12/14 15:09:15;;;;;;;14.23;2.97;;;;;;;;;;5133085;27;20425;-61
2020/12/14 15:11:41;;;;;;;15.48;3.33;;;;;;;;;;5131372;27;20491;-61
2020/12/14 15:14:11;;;;;;;19.73;3.35;;;;;;;;;;5130483;27;20065;-61
2020/12/14 15:16:38;;;;;;;22.63;9.05;;;;;;;;;;5129871;27;20042;-61
2020/12/14 15:19:05;;;;;;;20.08;6.82;;;;;;;;;;5130878;27;20391;-60
2020/12/14 15:21:31;;;;;;;28.60;11.25;;;;;;;;;;5132086;27;20031;-61
2020/12/14 15:23:57;;;;;;;30.10;8.20;;;;;;;;;;5132536;27;20035;-62
2020/12/14 15:26:24;;;;;;;18.25;5.60;;;;;;;;;;5131078;27;20102;-62
2020/12/14 15:28:50;;;;;;;17.15;7.93;;;;;;;;;;5132051;27;20053;-60
2020/12/14 15:31:16;;;;;;;17.98;4.35;;;;;;;;;;5131714;27;20126;-66
2020/12/14 15:33:43;;;;;;;15.98;3.42;;;;;;;;;;5131299;27;20078;-60
2020/12/14 15:36:17;;;;;;;23.40;5.68;;;;;;;;;;5133448;27;20027;-61
2020/12/14 15:38:44;;;;;;;16.27;3.85;;;;;;;;;;5129240;27;20411;-61
2020/12/14 15:41:10;;;;;;;17.25;3.67;;;;;;;;;;5130449;27;20056;-60
2020/12/14 15:43:37;;;;;;;17.80;4.00;;;;;;;;;;5130941;27;20373;-60
2020/12/14 15:46:04;;;;;;;17.13;4.32;;;;;;;;;;5128893;27;20369;-60
2020/12/14 15:48:30;;;;;;;14.88;2.90;;;;;;;;;;5128986;27;20544;-62
2020/12/14 15:50:56;;;;;;;21.13;3.40;;;;;;;;;;5128844;27;20163;-62
2020/12/14 15:53:22;;;;;;;18.73;3.05;;;;;;;;;;5132144;27;20043;-59
2020/12/14 15:55:48;;;;;;;14.82;3.10;;;;;;;;;;5130590;27;20412;-60
2020/12/14 15:58:14;;;;;;;9.52;1.98;;;;;;;;;;5130741;27;20106;-61
2020/12/14 16:00:40;;;;;;;11.45;2.88;;;;;;;;;;5131571;27;20039;-60
2020/12/14 16:03:07;;;;;;;20.95;3.20;;;;;;;;;;5129021;27;20027;-60
2020/12/14 16:05:33;;;;;;;14.43;3.40;;;;;;;;;;5128246;27;20108;-60
2020/12/14 16:08:00;;;;;;;21.27;3.65;;;;;;;;;;5128300;27;20052;-61
2020/12/14 16:10:27;;;;;;;14.55;2.63;;;;;;;;;;5128585;27;20247;-60
2020/12/14 16:12:54;;;;;;;12.85;3.13;;;;;;;;;;5128677;27;20028;-62
2020/12/14 16:15:20;;;;;;;16.40;2.63;;;;;;;;;;5129914;27;20012;-63
2020/12/14 16:17:47;;;;;;;14.48;2.42;;;;;;;;;;5127959;27;20019;-61
2020/12/14 16:20:13;;;;;;;13.52;3.00;;;;;;;;;;5127673;27;20019;-61
2020/12/14 16:22:39;;;;;;;13.98;2.17;;;;;;;;;;5123382;27;20042;-60
2020/12/14 16:25:06;;;;;;;13.63;2.70;;;;;;;;;;5127129;27;20149;-60
2020/12/14 16:27:32;;;;;;;14.55;3.28;;;;;;;;;;5121497;27;20027;-60
2020/12/14 16:29:58;;;;;;;20.23;3.10;;;;;;;;;;5128536;27;20105;-62
2020/12/14 16:32:34;;;;;;;16.63;3.60;;;;;;;;;;5110685;27;20030;-60
2020/12/14 16:35:00;;;;;;;11.68;2.65;;;;;;;;;;5127252;27;20146;-59
2020/12/14 16:37:27;;;;;;;15.93;2.67;;;;;;;;;;5128921;27;20023;-61
2020/12/14 16:39:53;;;;;;;21.42;3.75;;;;;;;;;;5125364;27;20052;-60
2020/12/14 16:42:19;;;;;;;13.73;2.88;;;;;;;;;;5129310;27;20527;-61
2020/12/14 16:44:45;;;;;;;16.67;2.80;;;;;;;;;;5127845;27;20031;-60
2020/12/14 16:47:11;;;;;;;12.93;3.15;;;;;;;;;;5126918;27;20033;-61
2020/12/14 16:49:38;;;;;;;19.30;3.88;;;;;;;;;;5127296;27;20023;-60
2020/12/14 16:52:04;;;;;;;19.05;4.20;;;;;;;;;;5125862;27;20023;-62
2020/12/14 16:54:30;;;;;;;13.25;3.75;;;;;;;;;;5128282;27;20228;-61
2020/12/14 16:56:56;;;;;;;14.35;4.43;;;;;;;;;;5125039;27;20035;-60
2020/12/14 16:59:23;;;;;;;20.13;4.88;;;;;;;;;;5122572;27;20015;-60
2020/12/14 17:01:50;;;;;;;30.35;7.00;;;;;;;;;;5122588;27;20159;-66
2020/12/14 17:04:25;;;;;;;25.73;8.00;;;;;;;;;;5114818;27;20478;-60
2020/12/14 17:07:04;;;;;;;24.77;8.15;;;;;;;;;;5121637;27;20042;-60
2020/12/14 17:09:30;;;;;;;28.33;8.55;;;;;;;;;;5127960;27;20030;-60
2020/12/14 17:11:57;;;;;;;15.00;6.22;;;;;;;;;;5116681;27;20036;-62
2020/12/14 17:14:23;;;;;;;20.70;8.75;;;;;;;;;;5119986;27;20027;-60
2020/12/14 17:16:49;;;;;;;22.75;8.13;;;;;;;;;;5124350;27;20085;-60
2020/12/14 17:19:15;;;;;;;21.35;8.05;;;;;;;;;;5113285;27;20034;-66
2020/12/14 17:21:43;;;;;;;17.85;6.78;;;;;;;;;;5124977;27;20035;-65
2020/12/14 17:24:10;;;;;;;17.67;6.05;;;;;;;;;;5130499;27;20027;-66
2020/12/14 17:26:36;;;;;;;17.52;5.47;;;;;;;;;;5119574;27;20108;-66
2020/12/14 17:29:02;;;;;;;18.38;6.55;;;;;;;;;;5118994;27;20023;-66
2020/12/14 17:31:29;;;;;;;16.17;5.93;;;;;;;;;;5127908;27;20023;-65
2020/12/14 17:33:58;;;;;;;14.95;3.80;;;;;;;;;;5112932;27;20090;-65
2020/12/14 17:36:24;;;;;;;14.15;4.13;;;;;;;;;;5127625;27;20030;-65
2020/12/14 17:38:51;;;;;;;13.05;3.92;;;;;;;;;;5128944;27;20015;-65
2020/12/14 17:41:17;;;;;;;11.23;3.53;;;;;;;;;;5128767;27;20076;-65
2020/12/14 17:43:43;;;;;;;13.25;3.53;;;;;;;;;;5127461;27;20019;-65
2020/12/14 17:46:10;;;;;;;20.08;5.85;;;;;;;;;;5128852;27;20111;-67
2020/12/14 17:48:38;;;;;;;14.20;3.85;;;;;;;;;;5131077;27;20023;-65
2020/12/14 17:51:04;;;;;;;12.98;3.70;;;;;;;;;;5128563;27;20042;-65
2020/12/14 17:53:30;;;;;;;14.15;2.92;;;;;;;;;;5127578;28;20494;-65
2020/12/14 17:55:56;;;;;;;14.38;3.00;;;;;;;;;;5127200;28;20039;-66
2020/12/14 17:58:22;;;;;;;12.35;3.13;;;;;;;;;;5127273;28;20027;-65
2020/12/14 18:00:49;;;;;;;19.88;4.10;;;;;;;;;;5129582;28;20092;-66
2020/12/14 18:03:15;;;;;;;15.63;3.47;;;;;;;;;;5129289;28;20169;-66
2020/12/14 18:05:41;;;;;;;21.73;4.57;;;;;;;;;;5125828;28;20034;-65
2020/12/14 18:08:08;;;;;;;14.38;3.40;;;;;;;;;;5128769;28;20079;-66
2020/12/14 18:10:34;;;;;;;16.83;3.88;;;;;;;;;;5127849;28;20042;-66
2020/12/14 18:13:01;;;;;;;20.35;4.40;;;;;;;;;;5127377;28;20023;-66
2020/12/14 18:15:27;;;;;;;19.00;4.38;;;;;;;;;;5131552;28;20125;-65
2020/12/14 18:17:55;;;;;;;22.95;4.82;;;;;;;;;;5128050;28;20048;-66
2020/12/14 18:20:24;;;;;;;28.63;5.30;;;;;;;;;;5127560;28;20437;-71
2020/12/14 18:22:50;;;;;;;22.95;5.15;;;;;;;;;;5129966;28;20023;-67
2020/12/14 18:25:17;;;;;;;23.42;5.72;;;;;;;;;;5129073;28;20027;-68
2020/12/14 18:27:46;;;;;;;17.30;5.07;;;;;;;;;;5132973;28;20032;-69
2020/12/14 18:30:13;;;;;;;20.98;4.93;;;;;;;;;;5128315;28;20069;-67
2020/12/14 21:23:26;;;;;;;30.90;6.80;;;;;;;;;;5128681;27;20463;-60
2020/12/14 21:25:52;;;;;;;32.90;7.35;;;;;;;;;;5128533;27;20023;-61
2020/12/14 21:28:19;;;;;;;22.48;7.50;;;;;;;;;;5128529;27;20035;-60
